createdAt,value
2018-05-16T00:00:35.914Z,13.60
2018-05-16T00:01:35.915Z,14.00
2018-05-16T00:02:35.913Z,14.10
2018-05-16T00:03:35.913Z,14.80
2018-05-16T00:04:35.914Z,14.40
2018-05-16T00:05:35.914Z,15.20
2018-05-16T00:06:35.914Z,15.80
2018-05-16T00:07:35.913Z,16.90
2018-05-16T00:08:35.918Z,16.40
2018-05-16T00:09:35.914Z,18.60
2018-05-16T00:10:35.916Z,17.90
2018-05-16T00:11:35.918Z,19.00
2018-05-16T00:12:35.919Z,18.70
2018-05-16T00:13:35.917Z,18.50
2018-05-16T00:14:35.915Z,19.20
2018-05-16T00:15:35.942Z,16.70
2018-05-16T00:16:36.015Z,17.60
2018-05-16T00:17:35.917Z,17.50
2018-05-16T00:18:35.923Z,19.20
2018-05-16T00:19:35.916Z,22.70
2018-05-16T00:20:35.920Z,19.10
2018-05-16T00:21:35.917Z,21.50
2018-05-16T00:22:35.917Z,20.30
2018-05-16T00:23:35.917Z,21.60
2018-05-16T00:24:35.928Z,23.40
2018-05-16T00:25:35.920Z,22.00
2018-05-16T00:26:35.920Z,20.90
2018-05-16T00:27:35.918Z,24.40
2018-05-16T00:28:36.228Z,25.90
2018-05-16T00:29:35.918Z,23.30
2018-05-16T00:30:35.918Z,24.90
2018-05-16T00:31:35.923Z,23.60
2018-05-16T00:32:35.920Z,22.60
2018-05-16T00:33:35.918Z,23.90
2018-05-16T00:34:35.919Z,25.00
2018-05-16T00:35:35.918Z,23.10
2018-05-16T00:36:35.919Z,26.40
2018-05-16T00:37:35.918Z,27.80
2018-05-16T00:38:35.918Z,31.10
2018-05-16T00:39:35.919Z,28.80
2018-05-16T00:40:36.006Z,28.00
2018-05-16T00:41:35.919Z,25.70
2018-05-16T00:42:35.920Z,27.90
2018-05-16T00:43:35.923Z,27.80
2018-05-16T00:44:35.917Z,29.00
2018-05-16T00:45:35.917Z,31.00
2018-05-16T00:46:35.918Z,27.70
2018-05-16T00:47:35.921Z,25.90
2018-05-16T00:48:35.917Z,29.20
2018-05-16T00:49:36.128Z,31.00
2018-05-16T00:50:35.917Z,32.10
2018-05-16T00:51:35.921Z,30.50
2018-05-16T00:52:35.918Z,29.40
2018-05-16T00:53:35.917Z,31.60
2018-05-16T00:54:35.917Z,32.40
2018-05-16T00:55:35.915Z,31.10
2018-05-16T00:56:35.915Z,31.80
2018-05-16T00:57:35.916Z,32.70
2018-05-16T00:58:35.915Z,31.20
2018-05-16T00:59:35.914Z,35.10
2018-05-16T01:00:35.916Z,34.40
2018-05-16T01:01:35.912Z,32.90
2018-05-16T01:02:35.915Z,35.00
2018-05-16T01:03:35.914Z,38.70
2018-05-16T01:04:35.912Z,35.20
2018-05-16T01:05:35.913Z,35.40
2018-05-16T01:06:35.914Z,35.40
2018-05-16T01:07:35.911Z,34.50
2018-05-16T01:08:35.912Z,36.00
2018-05-16T01:09:35.917Z,33.00
2018-05-16T01:10:35.953Z,39.30
2018-05-16T01:11:35.910Z,35.30
2018-05-16T01:12:35.912Z,34.00
2018-05-16T01:13:35.909Z,34.50
2018-05-16T01:14:35.911Z,34.20
2018-05-16T01:15:35.912Z,33.80
2018-05-16T01:16:35.917Z,34.90
2018-05-16T01:17:35.909Z,36.00
2018-05-16T01:18:35.908Z,35.50
2018-05-16T01:19:35.909Z,36.90
2018-05-16T01:20:36.507Z,39.60
2018-05-16T01:21:35.907Z,37.20
2018-05-16T01:22:35.906Z,37.20
2018-05-16T01:23:35.905Z,41.10
2018-05-16T01:24:35.905Z,35.70
2018-05-16T01:25:35.908Z,36.80
2018-05-16T01:26:35.903Z,39.70
2018-05-16T01:27:35.903Z,38.10
2018-05-16T01:28:35.904Z,40.80
2018-05-16T01:29:35.903Z,37.50
2018-05-16T01:30:35.902Z,37.20
2018-05-16T01:31:35.902Z,38.50
2018-05-16T01:32:35.902Z,38.60
2018-05-16T01:33:35.901Z,42.10
2018-05-16T01:34:35.902Z,41.60
2018-05-16T01:35:35.902Z,37.70
2018-05-16T01:36:35.898Z,41.10
2018-05-16T01:37:35.899Z,41.40
2018-05-16T01:38:35.902Z,39.40
2018-05-16T01:39:35.896Z,41.20
2018-05-16T01:40:35.904Z,39.80
2018-05-16T01:41:35.895Z,41.20
2018-05-16T01:42:35.896Z,41.20
2018-05-16T01:43:35.895Z,42.10
2018-05-16T01:44:35.893Z,40.70
2018-05-16T01:45:35.894Z,42.60
2018-05-16T01:46:35.894Z,40.50
2018-05-16T01:47:35.894Z,43.30
2018-05-16T01:48:35.892Z,43.40
2018-05-16T01:49:35.891Z,46.20
2018-05-16T01:50:35.891Z,49.20
2018-05-16T01:51:35.891Z,47.00
2018-05-16T01:52:35.891Z,48.50
2018-05-16T01:53:35.890Z,45.30
2018-05-16T01:54:35.890Z,47.80
2018-05-16T01:55:35.890Z,46.10
2018-05-16T01:56:35.888Z,49.20
2018-05-16T01:57:35.888Z,47.70
2018-05-16T01:58:35.888Z,46.50
2018-05-16T01:59:35.888Z,52.40
2018-05-16T02:00:35.886Z,47.30
2018-05-16T02:01:35.888Z,48.40
2018-05-16T02:02:35.890Z,53.00
2018-05-16T02:03:35.886Z,53.30
2018-05-16T02:04:35.888Z,51.40
2018-05-16T02:05:35.887Z,49.80
2018-05-16T02:06:35.885Z,49.70
2018-05-16T02:07:35.886Z,48.90
2018-05-16T02:08:35.891Z,52.10
2018-05-16T02:09:35.885Z,48.80
2018-05-16T02:10:35.883Z,49.80
2018-05-16T02:11:35.882Z,53.70
2018-05-16T02:12:35.883Z,51.50
2018-05-16T02:13:35.882Z,50.40
2018-05-16T02:14:35.882Z,47.70
2018-05-16T02:15:35.882Z,48.00
2018-05-16T02:16:35.881Z,47.10
2018-05-16T02:17:35.883Z,48.40
2018-05-16T02:18:35.881Z,49.10
2018-05-16T02:19:35.881Z,45.80
2018-05-16T02:20:35.879Z,50.20
2018-05-16T02:21:35.879Z,47.80
2018-05-16T02:22:35.878Z,45.20
2018-05-16T02:23:35.879Z,45.50
2018-05-16T02:24:35.877Z,46.70
2018-05-16T02:25:35.877Z,47.30
2018-05-16T02:26:35.891Z,46.70
2018-05-16T02:27:35.876Z,46.90
2018-05-16T02:28:35.875Z,44.20
2018-05-16T02:29:35.875Z,43.70
2018-05-16T02:30:35.874Z,43.50
2018-05-16T02:31:35.875Z,44.30
2018-05-16T02:32:35.874Z,47.60
2018-05-16T02:33:35.874Z,51.10
2018-05-16T02:34:35.950Z,47.00
2018-05-16T02:35:35.875Z,47.30
2018-05-16T02:36:35.874Z,49.10
2018-05-16T02:37:35.873Z,49.40
2018-05-16T02:38:35.874Z,50.70
2018-05-16T02:39:35.872Z,50.70
2018-05-16T02:40:35.874Z,55.00
2018-05-16T02:41:35.870Z,48.40
2018-05-16T02:42:35.918Z,49.90
2018-05-16T02:43:35.869Z,50.60
2018-05-16T02:44:35.868Z,49.30
2018-05-16T02:45:35.869Z,50.30
2018-05-16T02:46:35.868Z,52.10
2018-05-16T02:47:35.964Z,53.10
2018-05-16T02:48:35.872Z,52.90
2018-05-16T02:49:35.867Z,48.00
2018-05-16T02:50:35.865Z,50.10
2018-05-16T02:51:35.864Z,52.20
2018-05-16T02:52:35.867Z,51.90
2018-05-16T02:53:35.865Z,50.40
2018-05-16T02:54:35.863Z,49.60
2018-05-16T02:55:35.862Z,51.60
2018-05-16T02:56:35.862Z,53.10
2018-05-16T02:57:35.861Z,57.70
2018-05-16T02:58:35.863Z,49.70
2018-05-16T02:59:35.865Z,51.90
2018-05-16T03:00:35.861Z,54.50
2018-05-16T03:01:35.859Z,54.70
2018-05-16T03:02:35.860Z,53.70
2018-05-16T03:03:35.858Z,56.70
2018-05-16T03:04:35.888Z,56.40
2018-05-16T03:05:35.857Z,56.20
2018-05-16T03:06:35.858Z,60.90
2018-05-16T03:07:35.857Z,55.50
2018-05-16T03:08:35.855Z,56.80
2018-05-16T03:09:35.855Z,55.60
2018-05-16T03:10:35.854Z,53.00
2018-05-16T03:11:35.853Z,58.30
2018-05-16T03:12:35.853Z,56.00
2018-05-16T03:13:35.853Z,58.80
2018-05-16T03:14:35.850Z,54.20
2018-05-16T03:15:35.850Z,55.70
2018-05-16T03:16:35.852Z,56.70
2018-05-16T03:17:35.850Z,53.60
2018-05-16T03:18:35.850Z,55.10
2018-05-16T03:19:35.850Z,56.90
2018-05-16T03:20:35.848Z,56.80
2018-05-16T03:21:35.849Z,55.40
2018-05-16T03:22:35.847Z,55.30
2018-05-16T03:23:36.069Z,48.60
2018-05-16T03:24:35.850Z,51.30
2018-05-16T03:25:35.847Z,50.00
2018-05-16T03:26:35.845Z,51.70
2018-05-16T03:27:35.845Z,49.70
2018-05-16T03:28:35.846Z,49.30
2018-05-16T03:29:35.842Z,52.50
2018-05-16T03:30:35.847Z,52.70
2018-05-16T03:31:35.844Z,51.50
2018-05-16T03:32:35.840Z,51.30
2018-05-16T03:33:35.845Z,51.00
2018-05-16T03:34:35.842Z,54.90
2018-05-16T03:35:35.852Z,51.70
2018-05-16T03:36:35.839Z,52.50
2018-05-16T03:37:35.839Z,54.50
2018-05-16T03:38:35.840Z,52.90
2018-05-16T03:39:35.837Z,53.30
2018-05-16T03:40:35.837Z,55.30
2018-05-16T03:41:35.837Z,55.50
2018-05-16T03:42:35.836Z,53.80
2018-05-16T03:43:35.838Z,52.20
2018-05-16T03:44:35.833Z,53.10
2018-05-16T03:45:35.839Z,59.10
2018-05-16T03:46:35.833Z,57.70
2018-05-16T03:47:35.832Z,53.80
2018-05-16T03:48:35.836Z,51.70
2018-05-16T03:49:35.833Z,53.40
2018-05-16T03:50:35.836Z,50.00
2018-05-16T03:51:35.831Z,53.10
2018-05-16T03:52:35.831Z,52.10
2018-05-16T03:53:35.832Z,52.10
2018-05-16T03:54:36.488Z,52.70
2018-05-16T03:55:35.829Z,45.90
2018-05-16T03:56:35.828Z,42.00
2018-05-16T03:57:35.830Z,41.90
2018-05-16T03:58:35.837Z,41.60
2018-05-16T03:59:35.828Z,42.10
2018-05-16T04:00:35.828Z,43.60
2018-05-16T04:01:35.831Z,41.20
2018-05-16T04:02:35.827Z,45.00
2018-05-16T04:03:35.826Z,41.10
2018-05-16T04:04:35.826Z,37.20
2018-05-16T04:05:35.826Z,37.80
2018-05-16T04:06:35.825Z,35.40
2018-05-16T04:07:35.826Z,37.00
2018-05-16T04:08:35.825Z,38.80
2018-05-16T04:09:35.824Z,34.00
2018-05-16T04:10:35.839Z,37.30
2018-05-16T04:11:35.823Z,34.70
2018-05-16T04:12:35.823Z,32.60
2018-05-16T04:13:35.979Z,33.20
2018-05-16T04:14:35.821Z,32.10
2018-05-16T04:15:35.824Z,32.40
2018-05-16T04:16:35.821Z,32.40
2018-05-16T04:17:35.824Z,32.90
2018-05-16T04:18:35.820Z,31.10
2018-05-16T04:19:35.888Z,31.40
2018-05-16T04:20:35.823Z,29.80
2018-05-16T04:21:35.822Z,32.80
2018-05-16T04:22:35.819Z,32.90
2018-05-16T04:23:35.819Z,33.00
2018-05-16T04:24:35.820Z,29.80
2018-05-16T04:25:35.817Z,29.10
2018-05-16T04:26:35.821Z,30.70
2018-05-16T04:27:35.817Z,30.00
2018-05-16T04:28:35.815Z,28.40
2018-05-16T04:29:35.815Z,29.90
2018-05-16T04:30:35.817Z,28.30
2018-05-16T04:31:35.818Z,29.70
2018-05-16T04:32:35.896Z,28.30
2018-05-16T04:33:35.823Z,30.50
2018-05-16T04:34:35.817Z,29.60
2018-05-16T04:35:35.875Z,32.20
2018-05-16T04:36:35.813Z,29.90
2018-05-16T04:37:35.813Z,32.00
2018-05-16T04:38:35.814Z,28.90
2018-05-16T04:39:35.811Z,27.40
2018-05-16T04:40:35.814Z,30.30
2018-05-16T04:41:35.810Z,32.10
2018-05-16T04:42:35.813Z,30.50
2018-05-16T04:43:35.814Z,30.40
2018-05-16T04:44:35.818Z,27.90
2018-05-16T04:45:35.811Z,30.30
2018-05-16T04:46:35.813Z,29.70
2018-05-16T04:47:35.809Z,30.00
2018-05-16T04:48:35.808Z,29.60
2018-05-16T04:49:35.810Z,30.00
2018-05-16T04:50:35.809Z,26.60
2018-05-16T04:51:35.809Z,30.50
2018-05-16T04:52:35.814Z,31.00
2018-05-16T04:53:35.813Z,36.10
2018-05-16T04:54:35.808Z,37.70
2018-05-16T04:55:35.808Z,34.30
2018-05-16T04:56:35.808Z,35.50
2018-05-16T04:57:35.808Z,31.90
2018-05-16T04:58:35.807Z,35.90
2018-05-16T04:59:35.808Z,34.80
2018-05-16T05:00:35.810Z,40.80
2018-05-16T05:01:35.807Z,39.60
2018-05-16T05:02:35.814Z,36.60
2018-05-16T05:03:35.807Z,35.10
2018-05-16T05:04:35.822Z,36.80
2018-05-16T05:05:35.808Z,42.40
2018-05-16T05:06:35.807Z,38.00
2018-05-16T05:07:35.820Z,38.90
2018-05-16T05:08:35.806Z,38.30
2018-05-16T05:09:35.840Z,40.40
2018-05-16T05:10:35.813Z,41.60
2018-05-16T05:11:35.808Z,41.60
2018-05-16T05:12:35.808Z,40.40
2018-05-16T05:13:35.807Z,44.80
2018-05-16T05:14:35.806Z,41.50
2018-05-16T05:15:35.806Z,40.80
2018-05-16T05:16:35.805Z,41.90
2018-05-16T05:17:35.823Z,43.40
2018-05-16T05:18:35.923Z,41.90
2018-05-16T05:19:35.805Z,40.20
2018-05-16T05:20:35.805Z,40.10
2018-05-16T05:21:35.805Z,44.30
2018-05-16T05:22:35.807Z,42.10
2018-05-16T05:23:35.805Z,37.00
2018-05-16T05:24:35.810Z,36.40
2018-05-16T05:25:35.805Z,33.80
2018-05-16T05:26:35.825Z,36.20
2018-05-16T05:27:35.806Z,34.30
2018-05-16T05:28:35.806Z,38.60
2018-05-16T05:29:35.807Z,32.20
2018-05-16T05:30:35.817Z,33.00
2018-05-16T05:31:35.810Z,31.40
2018-05-16T05:32:35.813Z,36.70
2018-05-16T05:33:35.806Z,34.70
2018-05-16T05:34:35.806Z,32.60
2018-05-16T05:35:35.828Z,33.80
2018-05-16T05:36:35.814Z,31.80
2018-05-16T05:37:35.845Z,28.90
2018-05-16T05:38:35.886Z,29.10
2018-05-16T05:39:35.947Z,30.00
2018-05-16T05:40:36.033Z,28.80
2018-05-16T05:41:38.028Z,30.40
2018-05-16T05:42:35.825Z,29.80
2018-05-16T05:43:36.861Z,29.70
2018-05-16T05:44:35.850Z,29.00
2018-05-16T05:45:35.969Z,32.90
2018-05-16T05:46:36.878Z,31.40
2018-05-16T05:47:35.965Z,32.90
2018-05-16T05:48:36.073Z,32.30
2018-05-16T05:49:35.811Z,40.80
2018-05-16T05:50:35.808Z,34.30
2018-05-16T05:51:35.815Z,45.50
2018-05-16T05:52:35.809Z,33.80
2018-05-16T05:53:35.811Z,32.10
2018-05-16T05:54:35.809Z,42.40
2018-05-16T05:55:35.809Z,31.50
2018-05-16T05:56:35.831Z,35.70
2018-05-16T05:57:36.049Z,28.20
2018-05-16T05:58:35.809Z,29.80
2018-05-16T05:59:35.810Z,32.70
2018-05-16T06:00:35.817Z,31.90
2018-05-16T06:01:35.815Z,28.70
2018-05-16T06:02:35.821Z,30.10
2018-05-16T06:03:35.839Z,27.80
2018-05-16T06:04:35.839Z,28.40
2018-05-16T06:05:35.830Z,35.80
2018-05-16T06:06:35.830Z,29.80
2018-05-16T06:07:35.813Z,32.40
2018-05-16T06:08:35.869Z,30.20
2018-05-16T06:09:35.819Z,70.10
2018-05-16T06:10:35.815Z,48.60
2018-05-16T06:11:35.815Z,148.40
2018-05-16T06:12:35.820Z,45.10
2018-05-16T06:13:35.816Z,35.90
2018-05-16T06:14:35.823Z,32.90
2018-05-16T06:15:35.817Z,27.10
2018-05-16T06:16:35.822Z,34.20
2018-05-16T06:17:35.818Z,30.10
2018-05-16T06:18:35.823Z,31.00
2018-05-16T06:19:35.923Z,33.40
2018-05-16T06:20:35.827Z,35.00
2018-05-16T06:21:35.824Z,37.70
2018-05-16T06:22:35.823Z,33.60
2018-05-16T06:23:35.829Z,34.90
2018-05-16T06:24:35.828Z,32.10
2018-05-16T06:25:35.827Z,42.40
2018-05-16T06:26:35.839Z,37.80
2018-05-16T06:27:35.825Z,36.50
2018-05-16T06:28:36.405Z,36.50
2018-05-16T06:29:35.826Z,37.70
2018-05-16T06:30:35.829Z,36.80
2018-05-16T06:31:35.827Z,34.60
2018-05-16T06:32:35.832Z,36.00
2018-05-16T06:33:35.830Z,36.70
2018-05-16T06:34:35.856Z,35.90
2018-05-16T06:35:35.828Z,33.40
2018-05-16T06:36:35.840Z,35.70
2018-05-16T06:37:35.832Z,35.30
2018-05-16T06:38:35.830Z,38.60
2018-05-16T06:39:35.836Z,36.40
2018-05-16T06:40:35.835Z,40.90
2018-05-16T06:41:35.842Z,41.00
2018-05-16T06:42:35.832Z,43.30
2018-05-16T06:43:35.840Z,36.60
2018-05-16T06:44:35.853Z,34.60
2018-05-16T06:45:35.835Z,36.30
2018-05-16T06:46:35.840Z,39.50
2018-05-16T06:47:36.014Z,36.70
2018-05-16T06:48:35.840Z,36.10
2018-05-16T06:49:35.836Z,39.20
2018-05-16T06:50:35.892Z,37.30
2018-05-16T06:51:35.838Z,40.20
2018-05-16T06:52:35.839Z,40.70
2018-05-16T06:53:35.846Z,37.60
2018-05-16T06:54:35.841Z,35.20
2018-05-16T06:55:35.842Z,41.40
2018-05-16T06:56:35.844Z,41.80
2018-05-16T06:57:35.853Z,39.50
2018-05-16T06:58:35.844Z,41.10
2018-05-16T06:59:36.791Z,37.60
2018-05-16T07:00:35.850Z,40.70
2018-05-16T07:01:35.849Z,39.30
2018-05-16T07:02:35.850Z,36.70
2018-05-16T07:03:35.850Z,38.20
2018-05-16T07:04:35.882Z,37.80
2018-05-16T07:05:35.854Z,37.80
2018-05-16T07:06:35.853Z,37.00
2018-05-16T07:07:35.873Z,33.80
2018-05-16T07:08:35.858Z,36.10
2018-05-16T07:09:35.855Z,36.70
2018-05-16T07:10:35.863Z,34.50
2018-05-16T07:11:35.859Z,36.20
2018-05-16T07:12:35.865Z,37.80
2018-05-16T07:13:35.940Z,32.10
2018-05-16T07:14:35.859Z,36.90
2018-05-16T07:15:35.860Z,35.20
2018-05-16T07:16:35.866Z,31.20
2018-05-16T07:17:35.871Z,35.70
2018-05-16T07:18:35.865Z,30.30
2018-05-16T07:19:35.870Z,28.80
2018-05-16T07:20:35.867Z,31.60
2018-05-16T07:21:35.865Z,31.10
2018-05-16T07:22:35.870Z,29.80
2018-05-16T07:23:35.879Z,33.60
2018-05-16T07:24:35.867Z,30.50
2018-05-16T07:25:35.869Z,30.60
2018-05-16T07:26:35.868Z,28.20
2018-05-16T07:27:35.873Z,27.80
2018-05-16T07:28:35.873Z,28.30
2018-05-16T07:29:35.879Z,30.30
2018-05-16T07:30:35.880Z,33.10
2018-05-16T07:31:36.261Z,29.40
2018-05-16T07:32:35.874Z,26.80
2018-05-16T07:33:35.876Z,28.60
2018-05-16T07:34:35.878Z,27.70
2018-05-16T07:35:35.880Z,28.40
2018-05-16T07:36:35.879Z,29.70
2018-05-16T07:37:35.904Z,29.90
2018-05-16T07:38:35.891Z,28.70
2018-05-16T07:39:35.881Z,28.70
2018-05-16T07:40:35.894Z,29.60
2018-05-16T07:41:35.889Z,26.70
2018-05-16T07:42:35.890Z,29.10
2018-05-16T07:43:35.885Z,32.50
2018-05-16T07:44:36.189Z,32.30
2018-05-16T07:45:35.894Z,28.90
2018-05-16T07:46:35.890Z,31.00
2018-05-16T07:47:35.894Z,30.10
2018-05-16T07:48:35.890Z,29.70
2018-05-16T07:49:35.895Z,29.50
2018-05-16T07:50:35.893Z,27.20
2018-05-16T07:51:35.896Z,26.60
2018-05-16T07:52:35.898Z,29.60
2018-05-16T07:53:35.922Z,28.40
2018-05-16T07:54:35.940Z,29.40
2018-05-16T07:55:35.897Z,27.90
2018-05-16T07:56:35.904Z,28.30
2018-05-16T07:57:35.902Z,29.70
2018-05-16T07:58:35.901Z,30.50
2018-05-16T07:59:35.905Z,121.90
2018-05-16T08:00:35.906Z,40.10
2018-05-16T08:01:35.928Z,29.00
2018-05-16T08:02:35.906Z,41.10
2018-05-16T08:03:35.911Z,40.10
2018-05-16T08:04:36.806Z,79.50
2018-05-16T08:05:38.371Z,52.80
2018-05-16T08:06:35.918Z,29.90
2018-05-16T08:07:36.242Z,28.50
2018-05-16T08:08:35.978Z,30.60
2018-05-16T08:09:36.931Z,34.30
2018-05-16T08:10:35.928Z,30.80
2018-05-16T08:11:35.917Z,29.00
2018-05-16T08:12:35.922Z,28.40
2018-05-16T08:13:35.920Z,32.20
2018-05-16T08:14:35.921Z,26.90
2018-05-16T08:15:35.928Z,28.20
2018-05-16T08:16:35.925Z,25.80
2018-05-16T08:17:35.931Z,25.30
2018-05-16T08:18:35.929Z,34.10
2018-05-16T08:19:36.355Z,26.50
2018-05-16T08:20:35.930Z,23.20
2018-05-16T08:21:35.950Z,27.20
2018-05-16T08:22:35.934Z,25.20
2018-05-16T08:23:35.948Z,37.90
2018-05-16T08:24:35.945Z,31.40
2018-05-16T08:25:35.939Z,26.00
2018-05-16T08:26:35.940Z,27.40
2018-05-16T08:27:35.988Z,25.90
2018-05-16T08:28:35.946Z,26.40
2018-05-16T08:29:35.948Z,32.80
2018-05-16T08:30:35.951Z,25.80
2018-05-16T08:31:36.114Z,30.90
2018-05-16T08:32:35.948Z,30.10
2018-05-16T08:33:35.951Z,28.60
2018-05-16T08:34:35.959Z,26.70
2018-05-16T08:35:35.953Z,28.20
2018-05-16T08:36:35.997Z,26.70
2018-05-16T08:37:36.888Z,28.60
2018-05-16T08:38:35.960Z,24.90
2018-05-16T08:39:35.965Z,26.20
2018-05-16T08:40:36.066Z,28.90
2018-05-16T08:41:35.964Z,30.00
2018-05-16T08:42:35.964Z,28.70
2018-05-16T08:43:35.985Z,25.40
2018-05-16T08:44:35.987Z,29.00
2018-05-16T08:45:35.974Z,31.60
2018-05-16T08:46:35.974Z,24.20
2018-05-16T08:47:35.989Z,33.70
2018-05-16T08:48:35.982Z,29.10
2018-05-16T08:49:35.978Z,26.20
2018-05-16T08:50:35.980Z,24.90
2018-05-16T08:51:35.996Z,29.00
2018-05-16T08:52:35.989Z,24.50
2018-05-16T08:53:35.985Z,26.80
2018-05-16T08:54:35.988Z,29.20
2018-05-16T08:55:35.989Z,27.70
2018-05-16T08:56:35.994Z,29.20
2018-05-16T08:57:35.995Z,27.60
2018-05-16T08:58:35.995Z,26.10
2018-05-16T08:59:36.000Z,25.30
2018-05-16T09:00:35.999Z,25.00
2018-05-16T09:01:39.087Z,26.20
2018-05-16T09:02:36.552Z,24.80
2018-05-16T09:03:36.009Z,26.80
2018-05-16T09:04:36.008Z,26.70
2018-05-16T09:05:36.010Z,27.20
2018-05-16T09:06:36.021Z,24.20
2018-05-16T09:07:36.016Z,28.10
2018-05-16T09:08:36.021Z,31.40
2018-05-16T09:09:36.025Z,30.20
2018-05-16T09:10:36.021Z,27.50
2018-05-16T09:11:36.022Z,24.40
2018-05-16T09:12:36.031Z,26.00
2018-05-16T09:13:36.032Z,28.70
2018-05-16T09:14:36.840Z,28.50
2018-05-16T09:15:36.031Z,26.10
2018-05-16T09:16:36.034Z,25.20
2018-05-16T09:17:36.059Z,26.50
2018-05-16T09:18:36.499Z,26.90
2018-05-16T09:19:36.045Z,28.80
2018-05-16T09:20:36.044Z,22.80
2018-05-16T09:21:36.046Z,26.40
2018-05-16T09:22:36.051Z,24.30
2018-05-16T09:23:36.051Z,23.00
2018-05-16T09:24:36.055Z,25.00
2018-05-16T09:25:36.056Z,26.40
2018-05-16T09:26:36.060Z,29.10
2018-05-16T09:27:36.061Z,27.90
2018-05-16T09:28:36.064Z,44.30
2018-05-16T09:29:36.066Z,30.40
2018-05-16T09:30:36.073Z,26.50
2018-05-16T09:31:36.078Z,24.80
2018-05-16T09:32:36.077Z,24.60
2018-05-16T09:33:42.904Z,24.70
2018-05-16T09:34:36.087Z,21.80
2018-05-16T09:35:36.904Z,22.70
2018-05-16T09:36:36.091Z,23.70
2018-05-16T09:37:36.096Z,24.20
2018-05-16T09:38:36.094Z,21.60
2018-05-16T09:39:36.101Z,22.80
2018-05-16T09:40:36.106Z,26.10
2018-05-16T09:41:36.106Z,26.70
2018-05-16T09:42:36.106Z,24.20
2018-05-16T09:43:36.107Z,34.10
2018-05-16T09:44:36.117Z,29.10
2018-05-16T09:45:36.155Z,37.30
2018-05-16T09:46:36.121Z,31.60
2018-05-16T09:47:36.130Z,23.50
2018-05-16T09:48:36.128Z,23.00
2018-05-16T09:49:36.150Z,23.30
2018-05-16T09:50:36.134Z,23.70
2018-05-16T09:51:36.193Z,21.60
2018-05-16T09:52:36.138Z,22.90
2018-05-16T09:53:36.152Z,23.20
2018-05-16T09:54:36.147Z,22.30
2018-05-16T09:55:39.009Z,24.80
2018-05-16T09:56:36.159Z,23.90
2018-05-16T09:57:36.161Z,25.40
2018-05-16T09:58:36.161Z,24.10
2018-05-16T09:59:38.913Z,26.00
2018-05-16T10:00:36.168Z,25.50
2018-05-16T10:01:36.193Z,22.50
2018-05-16T10:02:36.175Z,24.30
2018-05-16T10:03:36.178Z,23.30
2018-05-16T10:04:36.182Z,23.30
2018-05-16T10:05:36.185Z,24.20
2018-05-16T10:06:36.190Z,25.30
2018-05-16T10:07:36.192Z,25.30
2018-05-16T10:08:36.205Z,24.90
2018-05-16T10:09:36.996Z,29.10
2018-05-16T10:10:36.204Z,27.90
2018-05-16T10:11:36.223Z,58.90
2018-05-16T10:12:36.273Z,30.80
2018-05-16T10:13:36.223Z,25.90
2018-05-16T10:14:36.219Z,28.20
2018-05-16T10:15:36.244Z,26.00
2018-05-16T10:16:36.318Z,24.40
2018-05-16T10:17:36.229Z,26.20
2018-05-16T10:18:36.245Z,26.90
2018-05-16T10:19:36.237Z,27.10
2018-05-16T10:20:36.242Z,24.90
2018-05-16T10:21:36.428Z,24.90
2018-05-16T10:22:36.618Z,24.70
2018-05-16T10:23:36.254Z,22.60
2018-05-16T10:24:36.256Z,22.90
2018-05-16T10:25:36.265Z,23.20
2018-05-16T10:26:36.266Z,23.40
2018-05-16T10:27:36.267Z,23.20
2018-05-16T10:28:36.272Z,22.20
2018-05-16T10:29:36.280Z,24.20
2018-05-16T10:30:36.283Z,22.40
2018-05-16T10:31:36.286Z,29.90
2018-05-16T10:32:36.310Z,27.60
2018-05-16T10:33:36.296Z,21.60
2018-05-16T10:34:36.399Z,23.10
2018-05-16T10:35:38.159Z,26.80
2018-05-16T10:36:36.314Z,24.40
2018-05-16T10:37:36.952Z,26.10
2018-05-16T10:38:36.590Z,24.40
2018-05-16T10:39:36.342Z,23.30
2018-05-16T10:40:36.335Z,24.00
2018-05-16T10:41:36.343Z,23.20
2018-05-16T10:42:36.379Z,21.80
2018-05-16T10:43:36.381Z,21.00
2018-05-16T10:44:36.393Z,24.40
2018-05-16T10:45:36.361Z,21.30
2018-05-16T10:46:36.368Z,21.50
2018-05-16T10:47:36.369Z,27.20
2018-05-16T10:48:36.393Z,22.60
2018-05-16T10:49:36.379Z,26.50
2018-05-16T10:50:36.386Z,25.00
2018-05-16T10:51:36.395Z,23.60
2018-05-16T10:52:36.720Z,25.20
2018-05-16T10:53:36.482Z,24.80
2018-05-16T10:54:36.403Z,25.20
2018-05-16T10:55:36.466Z,26.70
2018-05-16T10:56:36.411Z,26.90
2018-05-16T10:57:36.414Z,24.10
2018-05-16T10:58:36.425Z,22.60
2018-05-16T10:59:36.475Z,22.70
2018-05-16T11:00:36.431Z,23.80
2018-05-16T11:01:36.484Z,28.80
2018-05-16T11:02:36.440Z,27.00
2018-05-16T11:03:36.444Z,24.80
2018-05-16T11:04:36.443Z,21.90
2018-05-16T11:05:36.600Z,21.20
2018-05-16T11:06:36.458Z,22.00
2018-05-16T11:07:36.456Z,22.50
2018-05-16T11:08:36.471Z,23.20
2018-05-16T11:09:36.465Z,22.20
2018-05-16T11:10:36.551Z,21.60
2018-05-16T11:11:36.471Z,23.50
2018-05-16T11:12:36.476Z,27.70
2018-05-16T11:13:36.483Z,26.50
2018-05-16T11:14:36.484Z,25.20
2018-05-16T11:15:36.502Z,25.90
2018-05-16T11:16:36.492Z,26.00
2018-05-16T11:17:36.497Z,31.10
2018-05-16T11:18:36.498Z,26.80
2018-05-16T11:19:36.501Z,28.10
2018-05-16T11:20:36.509Z,26.80
2018-05-16T11:21:36.517Z,33.40
2018-05-16T11:22:36.545Z,26.50
2018-05-16T11:23:36.516Z,24.80
2018-05-16T11:24:36.544Z,23.90
2018-05-16T11:25:36.526Z,29.20
2018-05-16T11:26:36.535Z,34.00
2018-05-16T11:27:36.530Z,28.50
2018-05-16T11:28:36.543Z,26.20
2018-05-16T11:29:36.542Z,31.10
2018-05-16T11:30:36.551Z,31.30
2018-05-16T11:31:36.541Z,28.60
2018-05-16T11:32:36.598Z,25.30
2018-05-16T11:33:36.557Z,26.80
2018-05-16T11:34:36.551Z,27.60
2018-05-16T11:35:36.584Z,28.30
2018-05-16T11:36:37.029Z,27.00
2018-05-16T11:37:36.559Z,27.80
2018-05-16T11:38:36.609Z,29.20
2018-05-16T11:39:36.573Z,25.90
2018-05-16T11:40:36.573Z,30.00
2018-05-16T11:41:36.571Z,27.70
2018-05-16T11:42:36.849Z,29.70
2018-05-16T11:43:36.578Z,32.70
2018-05-16T11:44:36.597Z,32.90
2018-05-16T11:45:36.861Z,30.10
2018-05-16T11:46:36.618Z,29.00
2018-05-16T11:47:36.643Z,30.50
2018-05-16T11:48:36.598Z,27.90
2018-05-16T11:49:36.599Z,27.80
2018-05-16T11:50:36.733Z,30.60
2018-05-16T11:51:36.599Z,29.60
2018-05-16T11:52:36.602Z,28.80
2018-05-16T11:53:36.605Z,30.50
2018-05-16T11:54:36.608Z,27.10
2018-05-16T11:55:36.612Z,25.40
2018-05-16T11:56:36.616Z,31.30
2018-05-16T11:57:36.617Z,29.90
2018-05-16T11:58:36.619Z,31.00
2018-05-16T11:59:36.623Z,28.00
2018-05-16T12:00:36.651Z,27.60
2018-05-16T12:01:36.632Z,27.90
2018-05-16T12:02:36.633Z,28.00
2018-05-16T12:03:36.644Z,37.00
2018-05-16T12:04:36.642Z,28.90
2018-05-16T12:05:36.644Z,29.30
2018-05-16T12:06:36.645Z,26.70
2018-05-16T12:07:37.480Z,27.10
2018-05-16T12:08:36.661Z,25.70
2018-05-16T12:09:36.652Z,26.90
2018-05-16T12:10:36.661Z,30.30
2018-05-16T12:11:36.662Z,25.80
2018-05-16T12:12:36.660Z,26.00
2018-05-16T12:13:36.668Z,28.50
2018-05-16T12:14:36.691Z,28.60
2018-05-16T12:15:36.672Z,27.10
2018-05-16T12:16:36.676Z,26.20
2018-05-16T12:17:36.697Z,26.60
2018-05-16T12:18:36.687Z,31.10
2018-05-16T12:19:36.689Z,33.90
2018-05-16T12:20:36.700Z,28.20
2018-05-16T12:21:36.806Z,28.50
2018-05-16T12:22:36.700Z,28.90
2018-05-16T12:23:36.707Z,30.70
2018-05-16T12:24:36.700Z,30.50
2018-05-16T12:25:36.701Z,36.90
2018-05-16T12:26:36.710Z,30.20
2018-05-16T12:27:36.805Z,29.00
2018-05-16T12:28:36.717Z,48.00
2018-05-16T12:29:36.913Z,42.60
2018-05-16T12:30:37.004Z,29.70
2018-05-16T12:31:36.792Z,72.70
2018-05-16T12:32:36.934Z,29.00
2018-05-16T12:33:36.724Z,30.20
2018-05-16T12:34:36.750Z,28.00
2018-05-16T12:35:36.729Z,28.80
2018-05-16T12:36:36.793Z,28.10
2018-05-16T12:37:36.736Z,30.50
2018-05-16T12:38:36.737Z,29.00
2018-05-16T12:39:36.742Z,80.20
2018-05-16T12:40:36.754Z,25.90
2018-05-16T12:41:36.748Z,34.60
2018-05-16T12:42:36.747Z,29.40
2018-05-16T12:43:36.750Z,28.20
2018-05-16T12:44:36.754Z,27.90
2018-05-16T12:45:36.758Z,27.80
2018-05-16T12:46:36.813Z,29.70
2018-05-16T12:47:36.761Z,30.70
2018-05-16T12:48:36.765Z,28.50
2018-05-16T12:49:36.783Z,27.20
2018-05-16T12:50:36.773Z,26.70
2018-05-16T12:51:36.773Z,27.80
2018-05-16T12:52:36.778Z,32.30